This is the latest recevied weather packets stored in our database for station/object DH1NAI-6. If no packets are shown the sender has not sent any weather packets the latest 10 day(s).
| Time | Temp. | Humidity | Pressure | Rain* | Wind** | Luminosity | Snow |
|---|---|---|---|---|---|---|---|
| 1777811763 | 23.33° C | 35% | 1012.1 hPa | 0 mm | - | 165 W/m² | - |
| 1777811154 | 23.33° C | 36% | 1012.2 hPa | 0 mm | - | 115 W/m² | - |
| 1777810530 | 23.89° C | 37% | 1012.4 hPa | 0 mm | - | 182 W/m² | - |
| 1777809922 | 23.33° C | 38% | 1012.1 hPa | 0 mm | - | 141 W/m² | - |
| 1777809316 | 23.89° C | 37% | 1012.4 hPa | 0 mm | - | 120 W/m² | - |
| 1777808706 | 23.89° C | 36% | 1012.4 hPa | 0 mm | - | 181 W/m² | - |
| 1777808098 | 23.33° C | 36% | 1012.6 hPa | 0 mm | - | 171 W/m² | - |
| 1777807490 | 23.89° C | 36% | 1012.7 hPa | 0 mm | - | 173 W/m² | - |
| 1777806882 | 23.33° C | 37% | 1012.9 hPa | 0 mm | - | 117 W/m² | - |
| 1777806274 | 23.33° C | 38% | 1013 hPa | 0 mm | - | 146 W/m² | - |
| 1777805666 | 23.33° C | 37% | 1013.1 hPa | 0 mm | - | 128 W/m² | - |
| 1777805058 | 23.33° C | 36% | 1012.9 hPa | 0 mm | - | 170 W/m² | - |
| 1777804450 | 23.33° C | 38% | 1013.1 hPa | 0 mm | - | 174 W/m² | - |
| 1777803842 | 23.33° C | 39% | 1013.2 hPa | 0 mm | - | 149 W/m² | - |
| 1777803218 | 23.33° C | 36% | 1013.1 hPa | 0 mm | - | 167 W/m² | - |
| 1777802610 | 22.78° C | 37% | 1013.1 hPa | 0 mm | - | 159 W/m² | - |
| 1777802002 | 22.22° C | 37% | 1013.4 hPa | 0 mm | - | 131 W/m² | - |
| 1777801394 | 22.78° C | 35% | 1013.2 hPa | 0 mm | - | 124 W/m² | - |
| 1777800786 | 22.78° C | 35% | 1013.4 hPa | 0 mm | - | 172 W/m² | - |
| 1777800179 | 23.89° C | 34% | 1013.4 hPa | 0 mm | - | 191 W/m² | - |
| 1777799570 | 23.33° C | 35% | 1013.2 hPa | 0 mm | - | 162 W/m² | - |
| 1777798962 | 23.33° C | 34% | 1013.3 hPa | 0 mm | - | 199 W/m² | - |
| 1777798354 | 22.22° C | 37% | 1013.6 hPa | 0 mm | - | 175 W/m² | - |
| 1777797746 | 22.78° C | 35% | 1013.6 hPa | 0 mm | - | 190 W/m² | - |
| 1777797139 | 22.22° C | 36% | 1013.6 hPa | 0 mm | - | 176 W/m² | - |
* Rain latest hour (hover to see other rain measurements)
** Current wind speed in m/s (hover to see current wind gust speed)